createdAt,value
2022-08-24T00:01:05.473Z,19.73
2022-08-24T00:03:11.923Z,19.68
2022-08-24T00:05:15.244Z,19.61
2022-08-24T00:07:27.691Z,19.61
2022-08-24T00:09:31.943Z,19.57
2022-08-24T00:11:34.966Z,19.55
2022-08-24T00:13:39.279Z,19.52
2022-08-24T00:15:46.592Z,19.49
2022-08-24T00:17:50.961Z,19.46
2022-08-24T00:19:54.451Z,19.44
2022-08-24T00:21:57.639Z,19.44
2022-08-24T00:24:03.141Z,19.44
2022-08-24T00:26:07.144Z,19.41
2022-08-24T00:28:10.478Z,19.39
2022-08-24T00:30:16.478Z,19.35
2022-08-24T00:32:19.840Z,19.34
2022-08-24T00:34:25.570Z,19.31
2022-08-24T00:36:28.955Z,19.29
2022-08-24T00:38:31.970Z,19.25
2022-08-24T00:40:38.099Z,19.22
2022-08-24T00:42:41.882Z,19.22
2022-08-24T00:44:44.830Z,19.19
2022-08-24T00:46:51.479Z,19.18
2022-08-24T00:49:00.621Z,19.16
2022-08-24T00:51:07.296Z,19.14
2022-08-24T00:53:13.562Z,19.12
2022-08-24T00:55:20.201Z,19.08
2022-08-24T00:57:27.191Z,19.08
2022-08-24T00:59:34.257Z,19.05
2022-08-24T01:01:37.415Z,19.03
2022-08-24T01:03:42.633Z,19.01
2022-08-24T01:05:46.972Z,18.97
2022-08-24T01:07:52.708Z,18.98
2022-08-24T01:10:03.780Z,18.92
2022-08-24T01:12:07.238Z,18.88
2022-08-24T01:14:10.232Z,18.85
2022-08-24T01:16:13.457Z,18.81
2022-08-24T01:18:37.404Z,18.79
2022-08-24T01:20:40.465Z,18.75
2022-08-24T01:22:54.053Z,18.72
2022-08-24T01:24:59.838Z,18.70
2022-08-24T01:27:03.160Z,18.67
2022-08-24T01:29:11.702Z,18.65
2022-08-24T01:31:16.699Z,18.63
2022-08-24T01:33:24.386Z,18.61
2022-08-24T01:35:27.831Z,18.58
2022-08-24T01:37:32.842Z,18.56
2022-08-24T01:39:37.866Z,18.53
2022-08-24T01:41:42.438Z,18.51
2022-08-24T01:43:47.316Z,18.48
2022-08-24T01:45:50.354Z,18.45
2022-08-24T01:47:53.398Z,18.45
2022-08-24T01:49:56.455Z,18.44
2022-08-24T01:51:59.807Z,18.43
2022-08-24T01:54:03.692Z,18.42
2022-08-24T01:56:07.906Z,18.38
2022-08-24T01:58:13.471Z,18.37
2022-08-24T02:00:18.410Z,18.34
2022-08-24T02:02:26.717Z,18.29
2022-08-24T02:04:29.786Z,18.27
2022-08-24T02:06:33.394Z,18.25
2022-08-24T02:08:36.473Z,18.23
2022-08-24T02:10:39.399Z,18.23
2022-08-24T02:12:43.646Z,18.19
2022-08-24T02:14:48.325Z,18.17
2022-08-24T02:16:51.369Z,18.15
2022-08-24T02:19:01.748Z,18.11
2022-08-24T02:21:04.856Z,18.08
2022-08-24T02:23:08.810Z,18.05
2022-08-24T02:25:11.833Z,18.04
2022-08-24T02:27:17.449Z,18.02
2022-08-24T02:29:20.725Z,17.99
2022-08-24T02:31:25.171Z,18.00
2022-08-24T02:33:28.263Z,17.98
2022-08-24T02:35:31.299Z,17.96
2022-08-24T02:37:34.586Z,17.93
2022-08-24T02:39:44.554Z,17.92
2022-08-24T02:41:52.787Z,17.91
2022-08-24T02:43:57.012Z,17.89
2022-08-24T02:46:00.352Z,17.89
2022-08-24T02:48:05.513Z,17.88
2022-08-24T02:50:10.368Z,17.87
2022-08-24T02:52:13.299Z,17.85
2022-08-24T02:54:18.407Z,17.82
2022-08-24T02:56:26.961Z,17.78
2022-08-24T02:58:30.244Z,17.75
2022-08-24T03:00:33.616Z,17.72
2022-08-24T03:02:37.298Z,17.73
2022-08-24T03:04:41.756Z,17.71
2022-08-24T03:06:45.005Z,17.68
2022-08-24T03:08:53.302Z,17.67
2022-08-24T03:11:00.416Z,17.65
2022-08-24T03:13:03.598Z,17.63
2022-08-24T03:15:10.437Z,17.61
2022-08-24T03:17:13.753Z,17.59
2022-08-24T03:19:15.850Z,17.55
2022-08-24T03:21:21.923Z,17.54
2022-08-24T03:23:26.152Z,17.53
2022-08-24T03:25:29.639Z,17.51
2022-08-24T03:27:32.903Z,17.50
2022-08-24T03:29:36.600Z,17.47
2022-08-24T03:31:39.713Z,17.46
2022-08-24T03:33:43.104Z,17.45
2022-08-24T03:35:46.642Z,17.41
2022-08-24T03:37:53.900Z,17.39
2022-08-24T03:39:56.871Z,17.37
2022-08-24T03:41:59.936Z,17.33
2022-08-24T03:44:03.347Z,17.30
2022-08-24T03:46:09.548Z,17.28
2022-08-24T03:48:14.304Z,17.22
2022-08-24T03:50:18.216Z,17.18
2022-08-24T03:52:21.906Z,17.14
2022-08-24T03:54:26.791Z,17.15
2022-08-24T03:56:32.050Z,17.14
2022-08-24T03:58:36.193Z,17.14
2022-08-24T04:00:42.384Z,17.12
2022-08-24T04:02:48.138Z,17.10
2022-08-24T04:04:55.391Z,17.08
2022-08-24T04:06:58.438Z,17.08
2022-08-24T04:09:03.165Z,17.05
2022-08-24T04:11:13.510Z,17.03
2022-08-24T04:13:19.132Z,16.98
2022-08-24T04:15:24.413Z,16.95
2022-08-24T04:17:27.754Z,16.91
2022-08-24T04:19:30.791Z,16.90
2022-08-24T04:21:36.425Z,16.89
2022-08-24T04:23:47.708Z,16.90
2022-08-24T04:25:52.255Z,16.89
2022-08-24T04:27:56.799Z,16.88
2022-08-24T04:30:00.227Z,16.90
2022-08-24T04:32:08.413Z,16.89
2022-08-24T04:34:12.670Z,16.88
2022-08-24T04:36:15.617Z,16.88
2022-08-24T04:38:20.735Z,16.86
2022-08-24T04:40:40.642Z,16.89
2022-08-24T04:42:44.720Z,16.92
2022-08-24T04:44:49.095Z,16.94
2022-08-24T04:46:52.120Z,16.94
2022-08-24T04:48:56.203Z,16.91
2022-08-24T04:51:02.859Z,16.93
2022-08-24T04:53:07.960Z,16.95
2022-08-24T04:55:11.049Z,16.98
2022-08-24T04:57:17.972Z,16.99
2022-08-24T04:59:22.116Z,16.97
2022-08-24T05:01:29.195Z,16.91
2022-08-24T05:03:33.116Z,16.93
2022-08-24T05:05:36.557Z,16.95
2022-08-24T05:07:39.768Z,17.00
2022-08-24T05:09:42.776Z,17.04
2022-08-24T05:11:49.903Z,17.12
2022-08-24T05:13:58.189Z,17.19
2022-08-24T05:16:01.582Z,17.33
2022-08-24T05:18:07.616Z,17.47
2022-08-24T05:20:12.395Z,17.67
2022-08-24T05:22:15.703Z,17.87
2022-08-24T05:24:23.305Z,18.06
2022-08-24T05:26:28.610Z,18.25
2022-08-24T05:28:31.790Z,18.42
2022-08-24T05:30:36.504Z,18.63
2022-08-24T05:32:42.352Z,18.81
2022-08-24T05:34:46.724Z,18.97
2022-08-24T05:36:49.956Z,19.14
2022-08-24T05:39:11.366Z,19.35
2022-08-24T05:41:16.731Z,19.53
2022-08-24T05:43:21.459Z,19.65
2022-08-24T05:45:24.481Z,19.74
2022-08-24T05:47:28.912Z,19.88
2022-08-24T05:49:40.786Z,20.04
2022-08-24T05:51:46.165Z,20.22
2022-08-24T05:53:49.387Z,20.38
2022-08-24T05:55:52.896Z,20.54
2022-08-24T05:57:56.747Z,20.67
2022-08-24T06:00:01.495Z,20.89
2022-08-24T06:02:04.799Z,21.09
2022-08-24T06:04:08.508Z,21.25
2022-08-24T06:06:13.458Z,21.41
2022-08-24T06:08:18.091Z,21.58
2022-08-24T06:10:36.319Z,21.78
2022-08-24T06:12:40.813Z,21.92
2022-08-24T06:14:47.450Z,22.07
2022-08-24T06:16:52.462Z,22.22
2022-08-24T06:18:56.551Z,22.34
2022-08-24T06:21:06.360Z,22.52
2022-08-24T06:23:09.414Z,22.66
2022-08-24T06:25:36.548Z,22.82
2022-08-24T06:27:41.569Z,22.95
2022-08-24T06:29:44.723Z,22.91
2022-08-24T06:32:05.199Z,22.99
2022-08-24T06:34:08.965Z,23.10
2022-08-24T06:36:12.246Z,23.16
2022-08-24T06:38:15.321Z,23.30
2022-08-24T06:40:22.656Z,23.46
2022-08-24T06:42:26.353Z,23.61
2022-08-24T06:44:29.413Z,23.74
2022-08-24T06:46:41.051Z,23.91
2022-08-24T06:48:44.596Z,24.15
2022-08-24T06:50:48.239Z,24.30
2022-08-24T06:52:51.352Z,24.51
2022-08-24T06:54:54.452Z,24.68
2022-08-24T06:56:59.176Z,24.81
2022-08-24T06:59:03.364Z,24.92
2022-08-24T07:01:10.948Z,25.04
2022-08-24T07:03:14.363Z,25.24
2022-08-24T07:05:26.049Z,25.52
2022-08-24T07:08:01.481Z,25.69
2022-08-24T07:10:05.531Z,25.75
2022-08-24T07:12:10.307Z,25.94
2022-08-24T07:14:13.386Z,26.19
2022-08-24T07:16:18.746Z,26.36
2022-08-24T07:18:23.415Z,26.47
2022-08-24T07:20:26.921Z,26.56
2022-08-24T07:22:48.439Z,26.59
2022-08-24T07:24:51.630Z,26.76
2022-08-24T07:26:55.482Z,26.95
2022-08-24T07:29:05.433Z,27.09
2022-08-24T07:31:17.078Z,27.22
2022-08-24T07:33:29.503Z,27.39
2022-08-24T07:35:34.422Z,27.58
2022-08-24T07:37:41.446Z,27.62
2022-08-24T07:39:46.236Z,27.69
2022-08-24T07:42:11.928Z,27.76
2022-08-24T07:44:15.511Z,27.78
2022-08-24T07:46:18.601Z,27.85
2022-08-24T07:48:21.782Z,28.00
2022-08-24T07:50:26.018Z,28.22
2022-08-24T07:52:29.090Z,28.38
2022-08-24T07:54:32.417Z,28.58
2022-08-24T07:56:35.665Z,28.66
2022-08-24T07:58:39.599Z,28.81
2022-08-24T08:00:48.568Z,28.98
2022-08-24T08:02:51.671Z,28.95
2022-08-24T08:04:56.600Z,29.07
2022-08-24T08:07:02.039Z,29.24
2022-08-24T08:09:07.831Z,29.36
2022-08-24T08:11:11.209Z,29.61
2022-08-24T08:13:16.904Z,29.80
2022-08-24T08:15:20.043Z,29.81
2022-08-24T08:17:33.016Z,29.93
2022-08-24T08:19:36.313Z,30.17
2022-08-24T08:22:00.621Z,30.33
2022-08-24T08:24:16.620Z,30.53
2022-08-24T08:26:27.711Z,30.49
2022-08-24T08:28:43.501Z,30.52
2022-08-24T08:30:46.883Z,30.63
2022-08-24T08:32:51.353Z,30.63
2022-08-24T08:34:55.985Z,30.50
2022-08-24T08:37:01.310Z,30.47
2022-08-24T08:39:06.512Z,30.33
2022-08-24T08:41:32.269Z,30.42
2022-08-24T08:43:52.664Z,30.26
2022-08-24T08:46:09.854Z,30.21
2022-08-24T08:49:17.757Z,30.40
2022-08-24T08:51:50.562Z,30.29
2022-08-24T08:54:16.103Z,30.23
2022-08-24T08:56:24.057Z,30.29
2022-08-24T08:58:57.263Z,30.51
2022-08-24T09:01:12.284Z,30.48
2022-08-24T09:03:33.969Z,30.20
2022-08-24T09:06:22.423Z,30.15
2022-08-24T09:08:35.157Z,30.29
2022-08-24T09:10:51.829Z,30.46
2022-08-24T09:13:09.167Z,30.29
2022-08-24T09:15:21.956Z,30.33
2022-08-24T09:17:41.796Z,30.23
2022-08-24T09:19:57.743Z,30.01
2022-08-24T09:22:22.955Z,30.16
2022-08-24T09:24:59.567Z,30.06
2022-08-24T09:27:25.708Z,30.01
2022-08-24T09:29:42.771Z,29.89
2022-08-24T09:31:58.826Z,29.88
2022-08-24T09:34:10.394Z,29.95
2022-08-24T09:36:19.822Z,29.78
2022-08-24T09:38:34.209Z,29.74
2022-08-24T09:40:45.588Z,29.91
2022-08-24T09:43:16.260Z,30.11
2022-08-24T09:45:35.260Z,30.20
2022-08-24T09:48:15.771Z,30.29
2022-08-24T09:50:51.768Z,30.16
2022-08-24T09:53:38.734Z,29.96
2022-08-24T09:55:58.969Z,30.05
2022-08-24T09:58:17.444Z,30.08
2022-08-24T10:00:25.817Z,30.04
2022-08-24T10:02:38.776Z,30.08
2022-08-24T10:04:51.120Z,29.97
2022-08-24T10:07:00.987Z,30.02
2022-08-24T10:09:24.491Z,30.06
2022-08-24T10:11:35.548Z,29.90
2022-08-24T10:13:47.067Z,29.90
2022-08-24T10:16:03.253Z,30.10
2022-08-24T10:18:18.651Z,30.19
2022-08-24T10:20:24.608Z,30.27
2022-08-24T10:22:40.373Z,30.32
2022-08-24T10:24:56.065Z,30.50
2022-08-24T10:27:14.232Z,30.51
2022-08-24T10:29:29.652Z,30.58
2022-08-24T10:31:37.618Z,30.43
2022-08-24T10:33:55.001Z,30.35
2022-08-24T10:36:11.835Z,30.28
2022-08-24T10:38:51.361Z,30.28
2022-08-24T10:41:11.548Z,30.40
2022-08-24T10:43:48.499Z,30.59
2022-08-24T10:46:17.421Z,30.72
2022-08-24T10:48:39.157Z,30.77
2022-08-24T10:50:54.647Z,30.73
2022-08-24T10:53:15.796Z,30.69
2022-08-24T10:55:22.388Z,30.72
2022-08-24T10:57:32.107Z,30.77
2022-08-24T10:59:40.548Z,30.82
2022-08-24T11:02:02.123Z,30.90
2022-08-24T11:04:14.506Z,30.73
2022-08-24T11:06:18.703Z,30.57
2022-08-24T11:08:24.413Z,30.47
2022-08-24T11:10:30.378Z,30.31
2022-08-24T11:12:42.597Z,30.31
2022-08-24T11:14:48.672Z,30.37
2022-08-24T11:16:55.857Z,30.47
2022-08-24T11:19:02.318Z,30.33
2022-08-24T11:21:05.536Z,30.30
2022-08-24T11:23:10.503Z,30.32
2022-08-24T11:25:18.409Z,30.30
2022-08-24T11:27:30.520Z,30.17
2022-08-24T11:30:03.467Z,30.11
2022-08-24T11:32:06.716Z,30.07
2022-08-24T11:34:10.813Z,29.98
2022-08-24T11:36:17.424Z,30.01
2022-08-24T11:38:27.348Z,29.85
2022-08-24T11:40:32.056Z,29.72
2022-08-24T11:42:43.335Z,29.77
2022-08-24T11:44:50.809Z,29.87
2022-08-24T11:46:59.039Z,29.91
2022-08-24T11:49:08.995Z,29.94
2022-08-24T11:51:16.708Z,30.00
2022-08-24T11:53:28.469Z,29.97
2022-08-24T11:55:47.427Z,29.96
2022-08-24T11:58:02.352Z,29.96
2022-08-24T12:00:10.953Z,29.94
2022-08-24T12:02:20.091Z,29.93
2022-08-24T12:04:36.608Z,29.95
2022-08-24T12:06:49.237Z,30.03
2022-08-24T12:08:54.903Z,29.98
2022-08-24T12:11:03.130Z,29.96
2022-08-24T12:13:11.248Z,29.98
2022-08-24T12:15:18.183Z,29.95
2022-08-24T12:17:25.806Z,29.96
2022-08-24T12:19:30.689Z,29.94
2022-08-24T12:21:35.491Z,29.82
2022-08-24T12:23:41.107Z,29.78
2022-08-24T12:26:04.960Z,29.80
2022-08-24T12:28:08.076Z,29.77
2022-08-24T12:30:14.780Z,29.66
2022-08-24T12:32:20.515Z,29.61
2022-08-24T12:34:30.794Z,29.65
2022-08-24T12:36:39.911Z,29.56
2022-08-24T12:38:46.673Z,29.53
2022-08-24T12:40:54.029Z,29.52
2022-08-24T12:43:00.976Z,29.55
2022-08-24T12:45:07.808Z,29.60
2022-08-24T12:47:13.503Z,29.65
2022-08-24T12:49:23.285Z,29.63
2022-08-24T12:51:31.979Z,29.58
2022-08-24T12:53:55.557Z,29.66
2022-08-24T12:56:32.964Z,29.67
2022-08-24T12:59:08.364Z,29.59
2022-08-24T13:01:12.834Z,29.58
2022-08-24T13:03:26.897Z,29.62
2022-08-24T13:05:40.874Z,29.64
2022-08-24T13:07:47.051Z,29.67
2022-08-24T13:10:06.947Z,29.70
2022-08-24T13:13:01.933Z,29.75
2022-08-24T13:15:26.256Z,29.79
2022-08-24T13:17:41.458Z,29.81
2022-08-24T13:19:46.032Z,29.79
2022-08-24T13:21:53.293Z,29.77
2022-08-24T13:24:31.050Z,29.76
2022-08-24T13:26:35.893Z,29.80
2022-08-24T13:28:42.108Z,29.83
2022-08-24T13:31:05.713Z,29.83
2022-08-24T13:33:11.380Z,29.82
2022-08-24T13:35:34.974Z,29.76
2022-08-24T13:37:38.442Z,29.75
2022-08-24T13:40:08.612Z,29.74
2022-08-24T13:42:53.617Z,29.77
2022-08-24T13:45:26.107Z,29.82
2022-08-24T13:47:33.782Z,29.87
2022-08-24T13:49:52.677Z,29.83
2022-08-24T13:52:08.563Z,29.77
2022-08-24T13:54:22.559Z,29.79
2022-08-24T13:56:47.613Z,29.80
2022-08-24T13:58:56.731Z,29.80
2022-08-24T14:01:05.161Z,29.82
2022-08-24T14:03:27.826Z,29.88
2022-08-24T14:05:35.877Z,29.91
2022-08-24T14:07:50.599Z,29.97
2022-08-24T14:10:05.663Z,29.99
2022-08-24T14:12:25.061Z,30.03
2022-08-24T14:14:50.988Z,30.00
2022-08-24T14:17:22.299Z,30.04
2022-08-24T14:19:31.908Z,30.06
2022-08-24T14:21:39.478Z,30.02
2022-08-24T14:23:52.573Z,30.05
2022-08-24T14:26:28.664Z,30.10
2022-08-24T14:28:37.912Z,30.11
2022-08-24T14:30:46.758Z,30.13
2022-08-24T14:33:08.020Z,30.09
2022-08-24T14:35:27.716Z,30.13
2022-08-24T14:37:36.961Z,30.16
2022-08-24T14:39:46.870Z,30.20
2022-08-24T14:41:58.757Z,30.21
2022-08-24T14:44:11.812Z,30.25
2022-08-24T14:46:22.450Z,30.27
2022-08-24T14:48:35.926Z,30.31
2022-08-24T14:50:43.232Z,30.35
2022-08-24T14:53:14.370Z,30.30
2022-08-24T14:55:29.745Z,30.30
2022-08-24T14:57:54.390Z,30.31
2022-08-24T15:00:08.222Z,30.30
2022-08-24T15:02:38.717Z,30.28
2022-08-24T15:04:44.539Z,30.20
2022-08-24T15:06:49.994Z,30.18
2022-08-24T15:08:55.691Z,30.16
2022-08-24T15:11:03.834Z,30.16
2022-08-24T15:13:13.165Z,30.19
2022-08-24T15:15:23.789Z,30.15
2022-08-24T15:17:39.545Z,30.06
2022-08-24T15:19:48.800Z,30.00
2022-08-24T15:21:57.652Z,30.00
2022-08-24T15:24:10.158Z,29.94
2022-08-24T15:26:18.947Z,29.87
2022-08-24T15:28:25.676Z,29.80
2022-08-24T15:30:31.177Z,29.75
2022-08-24T15:32:44.923Z,29.78
2022-08-24T15:34:50.592Z,29.84
2022-08-24T15:37:01.580Z,29.86
2022-08-24T15:39:05.885Z,29.91
2022-08-24T15:41:12.608Z,29.95
2022-08-24T15:43:16.168Z,29.95
2022-08-24T15:45:20.967Z,30.00
2022-08-24T15:47:27.846Z,30.00
2022-08-24T15:49:35.805Z,29.92
2022-08-24T15:51:45.595Z,29.73
2022-08-24T15:53:48.801Z,29.64
2022-08-24T15:55:53.421Z,29.64
2022-08-24T15:57:57.431Z,29.67
2022-08-24T16:00:08.685Z,29.70
2022-08-24T16:02:26.111Z,29.75
2022-08-24T16:04:47.208Z,29.76
2022-08-24T16:06:50.259Z,29.78
2022-08-24T16:09:01.858Z,29.80
2022-08-24T16:11:20.310Z,29.78
2022-08-24T16:13:29.059Z,29.78
2022-08-24T16:15:32.221Z,29.78
2022-08-24T16:17:37.848Z,29.77
2022-08-24T16:19:40.989Z,29.71
2022-08-24T16:21:54.611Z,29.65
2022-08-24T16:24:02.555Z,29.58
2022-08-24T16:26:21.394Z,29.47
2022-08-24T16:28:36.592Z,29.45
2022-08-24T16:30:50.029Z,29.36
2022-08-24T16:32:54.973Z,29.31
2022-08-24T16:35:16.707Z,29.27
2022-08-24T16:37:21.703Z,29.25
2022-08-24T16:39:25.498Z,29.19
2022-08-24T16:41:28.523Z,29.12
2022-08-24T16:43:31.612Z,29.06
2022-08-24T16:45:36.156Z,29.02
2022-08-24T16:47:39.368Z,29.01
2022-08-24T16:49:42.343Z,28.98
2022-08-24T16:51:45.731Z,28.97
2022-08-24T16:53:50.295Z,28.97
2022-08-24T16:55:53.668Z,28.97
2022-08-24T16:57:56.882Z,28.94
2022-08-24T17:00:00.074Z,28.91
2022-08-24T17:02:03.212Z,28.88
2022-08-24T17:04:08.893Z,28.83
2022-08-24T17:06:13.203Z,28.80
2022-08-24T17:08:16.189Z,28.79
2022-08-24T17:10:23.133Z,28.78
2022-08-24T17:12:26.996Z,28.74
2022-08-24T17:14:29.987Z,28.72
2022-08-24T17:16:33.095Z,28.67
2022-08-24T17:18:36.215Z,28.66
2022-08-24T17:20:39.400Z,28.63
2022-08-24T17:22:42.478Z,28.62
2022-08-24T17:24:45.657Z,28.57
2022-08-24T17:26:52.196Z,28.52
2022-08-24T17:28:55.534Z,28.48
2022-08-24T17:30:58.770Z,28.48
2022-08-24T17:33:01.788Z,28.47
2022-08-24T17:35:05.369Z,28.42
2022-08-24T17:37:08.800Z,28.41
2022-08-24T17:39:12.758Z,28.39
2022-08-24T17:41:18.490Z,28.37
2022-08-24T17:43:24.778Z,28.36
2022-08-24T17:45:28.007Z,28.33
2022-08-24T17:47:31.212Z,28.32
2022-08-24T17:49:34.561Z,28.28
2022-08-24T17:51:37.561Z,28.26
2022-08-24T17:53:41.473Z,28.20
2022-08-24T17:55:44.602Z,28.16
2022-08-24T17:57:49.002Z,28.12
2022-08-24T17:59:54.640Z,28.10
2022-08-24T18:01:59.230Z,28.03
2022-08-24T18:04:02.353Z,27.99
2022-08-24T18:06:05.662Z,27.94
2022-08-24T18:08:09.423Z,27.91
2022-08-24T18:10:23.819Z,27.88
2022-08-24T18:12:27.527Z,27.82
2022-08-24T18:14:31.401Z,27.78
2022-08-24T18:16:35.847Z,27.72
2022-08-24T18:18:38.868Z,27.66
2022-08-24T18:20:42.421Z,27.62
2022-08-24T18:22:47.230Z,27.59
2022-08-24T18:24:53.725Z,27.52
2022-08-24T18:26:57.468Z,27.45
2022-08-24T18:29:05.699Z,27.37
2022-08-24T18:31:10.418Z,27.32
2022-08-24T18:33:15.005Z,27.27
2022-08-24T18:35:18.239Z,27.24
2022-08-24T18:37:21.318Z,27.21
2022-08-24T18:39:24.468Z,27.18
2022-08-24T18:41:32.405Z,27.13
2022-08-24T18:43:37.911Z,27.05
2022-08-24T18:45:41.134Z,26.98
2022-08-24T18:47:44.367Z,26.92
2022-08-24T18:49:57.330Z,26.85
2022-08-24T18:52:04.232Z,26.77
2022-08-24T18:54:10.739Z,26.71
2022-08-24T18:56:14.039Z,26.65
2022-08-24T18:58:17.050Z,26.60
2022-08-24T19:00:20.404Z,26.56
2022-08-24T19:02:33.959Z,26.49
2022-08-24T19:04:43.795Z,26.44
2022-08-24T19:06:48.313Z,26.39
2022-08-24T19:08:51.415Z,26.34
2022-08-24T19:10:54.456Z,26.28
2022-08-24T19:12:59.794Z,26.24
2022-08-24T19:15:03.534Z,26.20
2022-08-24T19:17:07.400Z,26.15
2022-08-24T19:19:11.948Z,26.13
2022-08-24T19:21:15.147Z,26.08
2022-08-24T19:23:22.563Z,26.06
2022-08-24T19:25:28.147Z,26.02
2022-08-24T19:27:31.470Z,25.98
2022-08-24T19:31:58.708Z,25.93
2022-08-24T19:34:03.295Z,25.91
2022-08-24T19:36:07.091Z,25.85
2022-08-24T19:38:10.215Z,25.83
2022-08-24T19:40:14.738Z,25.80
2022-08-24T19:42:18.588Z,25.76
2022-08-24T19:44:39.467Z,25.71
2022-08-24T19:46:42.786Z,25.68
2022-08-24T19:48:45.992Z,25.64
2022-08-24T19:50:49.089Z,25.61
2022-08-24T19:52:52.187Z,25.59
2022-08-24T19:54:56.160Z,25.56
2022-08-24T19:57:01.055Z,25.52
2022-08-24T19:59:08.347Z,25.46
2022-08-24T20:01:14.311Z,25.40
2022-08-24T20:03:18.004Z,25.37
2022-08-24T20:05:22.466Z,25.34
2022-08-24T20:07:25.566Z,25.33
2022-08-24T20:09:29.183Z,25.32
2022-08-24T20:11:32.446Z,25.31
2022-08-24T20:13:37.277Z,25.29
2022-08-24T20:15:40.792Z,25.25
2022-08-24T20:17:43.923Z,25.22
2022-08-24T20:19:47.000Z,25.14
2022-08-24T20:21:50.099Z,25.11
2022-08-24T20:23:53.301Z,25.07
2022-08-24T20:25:56.490Z,25.03
2022-08-24T20:28:25.514Z,25.03
2022-08-24T20:30:25.618Z,25.01
2022-08-24T20:32:29.340Z,25.02
2022-08-24T20:34:32.452Z,25.02
2022-08-24T20:36:37.516Z,25.01
2022-08-24T20:38:40.948Z,25.01
2022-08-24T20:40:44.533Z,24.98
2022-08-24T20:42:47.692Z,24.93
2022-08-24T20:44:50.749Z,24.86
2022-08-24T20:46:56.020Z,24.81
2022-08-24T20:48:59.313Z,24.74
2022-08-24T20:51:02.601Z,24.68
2022-08-24T20:53:06.165Z,24.63
2022-08-24T20:55:10.627Z,24.56
2022-08-24T20:57:17.287Z,24.51
2022-08-24T20:59:20.676Z,24.42
2022-08-24T21:01:24.852Z,24.36
2022-08-24T21:03:29.419Z,24.32
2022-08-24T21:05:32.665Z,24.29
2022-08-24T21:07:35.978Z,24.21
2022-08-24T21:09:39.467Z,24.13
2022-08-24T21:11:43.188Z,24.04
2022-08-24T21:13:46.644Z,24.03
2022-08-24T21:15:51.723Z,23.99
2022-08-24T21:17:55.024Z,23.89
2022-08-24T21:19:59.534Z,23.86
2022-08-24T21:22:03.805Z,23.81
2022-08-24T21:24:08.070Z,23.78
2022-08-24T21:26:14.010Z,23.74
2022-08-24T21:28:17.657Z,23.69
2022-08-24T21:30:23.119Z,23.61
2022-08-24T21:32:44.028Z,23.55
2022-08-24T21:34:47.161Z,23.52
2022-08-24T21:36:52.600Z,23.51
2022-08-24T21:38:57.287Z,23.47
2022-08-24T21:41:00.670Z,23.42
2022-08-24T21:43:09.323Z,23.37
2022-08-24T21:45:18.399Z,23.35
2022-08-24T21:47:21.402Z,23.32
2022-08-24T21:49:24.690Z,23.30
2022-08-24T21:51:28.342Z,23.27
2022-08-24T21:53:32.871Z,23.22
2022-08-24T21:55:37.992Z,23.19
2022-08-24T21:57:41.447Z,23.14
2022-08-24T21:59:44.597Z,23.09
2022-08-24T22:01:48.020Z,23.04
2022-08-24T22:03:51.231Z,23.00
2022-08-24T22:05:54.397Z,22.98
2022-08-24T22:07:57.844Z,22.96
2022-08-24T22:10:02.312Z,22.91
2022-08-24T22:12:05.875Z,22.89
2022-08-24T22:14:09.004Z,22.86
2022-08-24T22:16:12.525Z,22.83
2022-08-24T22:18:15.846Z,22.81
2022-08-24T22:20:23.443Z,22.77
2022-08-24T22:22:27.695Z,22.73
2022-08-24T22:24:30.784Z,22.71
2022-08-24T22:26:35.740Z,22.70
2022-08-24T22:28:41.292Z,22.67
2022-08-24T22:30:47.941Z,22.65
2022-08-24T22:32:52.105Z,22.62
2022-08-24T22:34:55.707Z,22.55
2022-08-24T22:37:00.983Z,22.50
2022-08-24T22:39:05.531Z,22.49
2022-08-24T22:41:09.148Z,22.48
2022-08-24T22:43:13.668Z,22.44
2022-08-24T22:45:16.023Z,22.41
2022-08-24T22:47:19.734Z,22.38
2022-08-24T22:49:25.731Z,22.36
2022-08-24T22:51:32.204Z,22.29
2022-08-24T22:53:35.140Z,22.23
2022-08-24T22:55:38.149Z,22.17
2022-08-24T22:57:41.214Z,22.13
2022-08-24T22:59:46.561Z,22.10
2022-08-24T23:01:51.228Z,22.07
2022-08-24T23:03:55.428Z,22.04
2022-08-24T23:05:58.544Z,22.05
2022-08-24T23:08:01.844Z,22.03
2022-08-24T23:10:06.511Z,22.01
2022-08-24T23:12:11.799Z,21.98
2022-08-24T23:14:15.902Z,21.96
2022-08-24T23:16:20.384Z,21.94
2022-08-24T23:18:43.230Z,21.92
2022-08-24T23:20:46.227Z,21.91
2022-08-24T23:22:49.921Z,21.86
2022-08-24T23:24:52.934Z,21.81
2022-08-24T23:26:56.117Z,21.77
2022-08-24T23:28:59.335Z,21.75
2022-08-24T23:31:06.708Z,21.73
2022-08-24T23:33:11.162Z,21.73
2022-08-24T23:35:14.200Z,21.70
2022-08-24T23:37:18.549Z,21.66
2022-08-24T23:39:22.139Z,21.63
2022-08-24T23:41:27.665Z,21.59
2022-08-24T23:43:30.688Z,21.57
2022-08-24T23:45:33.734Z,21.46
2022-08-24T23:47:36.721Z,21.41
2022-08-24T23:49:41.733Z,21.36
2022-08-24T23:51:44.757Z,21.33
2022-08-24T23:53:49.054Z,21.30
2022-08-24T23:55:52.335Z,21.27
2022-08-24T23:57:56.156Z,21.24
